createdAt,value
2018-06-14T00:01:31.983Z,99.90
2018-06-14T00:03:59.688Z,99.90
2018-06-14T00:06:27.464Z,99.90
2018-06-14T00:11:23.664Z,99.90
2018-06-14T00:13:51.407Z,99.90
2018-06-14T00:16:19.127Z,99.90
2018-06-14T00:21:14.484Z,99.90
2018-06-14T00:23:42.231Z,99.90
2018-06-14T00:26:09.974Z,99.90
2018-06-14T00:28:37.690Z,99.90
2018-06-14T00:31:05.396Z,99.90
2018-06-14T00:33:33.165Z,99.90
2018-06-14T00:36:07.526Z,99.90
2018-06-14T00:38:35.523Z,99.90
2018-06-14T00:41:03.217Z,99.90
2018-06-14T00:43:31.032Z,99.90
2018-06-14T00:45:58.748Z,99.90
2018-06-14T00:48:26.480Z,99.90
2018-06-14T00:50:54.244Z,99.90
2018-06-14T00:53:21.937Z,99.90
2018-06-14T00:55:49.670Z,99.90
2018-06-14T00:58:17.368Z,99.90
2018-06-14T01:00:45.099Z,99.90
2018-06-14T01:03:12.805Z,99.90
2018-06-14T01:05:40.547Z,99.90
2018-06-14T01:08:08.288Z,99.90
2018-06-14T01:10:36.044Z,99.90
2018-06-14T01:13:03.786Z,99.90
2018-06-14T01:15:31.551Z,99.90
2018-06-14T01:17:59.243Z,99.90
2018-06-14T01:20:26.972Z,99.90
2018-06-14T01:22:54.696Z,99.90
2018-06-14T01:25:22.399Z,99.90
2018-06-14T01:27:50.125Z,99.90
2018-06-14T01:30:17.862Z,99.90
2018-06-14T01:32:45.558Z,99.90
2018-06-14T01:35:13.292Z,99.90
2018-06-14T01:37:52.437Z,99.90
2018-06-14T01:40:20.152Z,99.90
2018-06-14T01:42:47.883Z,99.90
2018-06-14T01:45:15.610Z,99.90
2018-06-14T01:47:43.328Z,99.90
2018-06-14T01:50:11.037Z,99.90
2018-06-14T01:52:38.775Z,99.90
2018-06-14T01:55:06.487Z,99.90
2018-06-14T01:57:34.284Z,99.90
2018-06-14T02:04:57.322Z,99.90
2018-06-14T02:07:25.035Z,99.90
2018-06-14T02:12:20.392Z,99.90
2018-06-14T02:14:48.076Z,99.90
2018-06-14T02:17:15.827Z,99.90
2018-06-14T02:19:43.544Z,99.90
2018-06-14T02:24:38.888Z,99.90
2018-06-14T02:27:06.621Z,99.90
2018-06-14T02:29:34.343Z,99.90
2018-06-14T02:32:02.100Z,99.90
2018-06-14T02:34:29.804Z,99.90
2018-06-14T02:36:57.616Z,99.90
2018-06-14T02:39:25.317Z,99.90
2018-06-14T02:41:53.025Z,99.90
2018-06-14T02:44:20.820Z,99.90
2018-06-14T02:46:48.529Z,99.90
2018-06-14T02:49:16.245Z,99.90
2018-06-14T02:51:43.952Z,99.90
2018-06-14T02:54:11.663Z,99.90
2018-06-14T02:56:39.386Z,99.90
2018-06-14T02:59:07.079Z,99.90
2018-06-14T03:01:35.424Z,99.90
2018-06-14T03:04:03.167Z,99.90
2018-06-14T03:06:30.981Z,99.90
2018-06-14T03:08:58.695Z,99.90
2018-06-14T03:11:26.408Z,99.90
2018-06-14T03:16:22.451Z,99.90
2018-06-14T03:21:17.878Z,99.90
2018-06-14T03:23:45.593Z,99.90
2018-06-14T03:26:13.868Z,99.90
2018-06-14T03:28:41.571Z,99.90
2018-06-14T03:36:04.617Z,99.90
2018-06-14T03:38:32.615Z,99.90
2018-06-14T03:41:00.319Z,99.90
2018-06-14T03:43:28.044Z,99.90
2018-06-14T03:45:55.827Z,99.90
2018-06-14T03:53:18.733Z,99.90
2018-06-14T03:55:46.445Z,99.90
2018-06-14T03:58:14.980Z,99.90
2018-06-14T04:00:42.675Z,99.90
2018-06-14T04:03:10.682Z,99.90
2018-06-14T04:08:06.069Z,99.90
2018-06-14T04:10:33.795Z,99.90
2018-06-14T04:13:01.526Z,99.90
2018-06-14T04:15:29.262Z,99.90
2018-06-14T04:18:00.988Z,99.90
2018-06-14T04:20:28.934Z,99.90
2018-06-14T04:22:56.671Z,99.90
2018-06-14T04:25:24.376Z,99.90
2018-06-14T04:27:52.100Z,99.90
2018-06-14T04:30:19.820Z,99.90
2018-06-14T04:32:47.533Z,99.90
2018-06-14T04:35:15.235Z,99.90
2018-06-14T04:37:42.964Z,99.90
2018-06-14T04:40:10.697Z,99.90
2018-06-14T04:42:38.437Z,99.90
2018-06-14T04:45:06.172Z,99.90
2018-06-14T04:50:01.498Z,99.90
2018-06-14T04:54:56.943Z,99.90
2018-06-14T04:57:24.707Z,99.90
2018-06-14T04:59:52.432Z,99.90
2018-06-14T05:02:20.237Z,99.90
2018-06-14T05:07:15.560Z,99.90
2018-06-14T05:09:43.311Z,99.90
2018-06-14T05:12:11.064Z,99.90
2018-06-14T05:17:06.473Z,99.90
2018-06-14T05:19:34.214Z,99.90
2018-06-14T05:22:01.982Z,99.90
2018-06-14T05:24:29.716Z,99.90
2018-06-14T05:26:57.435Z,99.90
2018-06-14T05:29:25.223Z,99.90
2018-06-14T05:31:53.061Z,99.90
2018-06-14T05:34:20.972Z,99.90
2018-06-14T05:36:48.700Z,99.90
2018-06-14T05:39:16.434Z,99.90
2018-06-14T05:41:44.536Z,99.90
2018-06-14T05:44:12.241Z,99.90
2018-06-14T05:46:39.961Z,99.90
2018-06-14T05:49:07.707Z,99.90
2018-06-14T05:51:35.467Z,99.90
2018-06-14T05:54:03.265Z,99.90
2018-06-14T05:58:58.624Z,99.90
2018-06-14T06:01:26.447Z,99.90
2018-06-14T06:03:54.192Z,99.90
2018-06-14T06:06:21.977Z,99.90
2018-06-14T06:08:49.714Z,99.90
2018-06-14T06:11:17.444Z,99.90
2018-06-14T06:13:45.827Z,99.90
2018-06-14T06:16:13.763Z,99.90
2018-06-14T06:18:41.490Z,99.10
2018-06-14T06:21:09.209Z,98.90
2018-06-14T06:23:36.941Z,98.40
2018-06-14T06:26:04.825Z,99.30
2018-06-14T06:28:32.560Z,99.00
2018-06-14T06:31:00.444Z,97.30
2018-06-14T06:33:28.261Z,97.50
2018-06-14T06:35:56.012Z,97.50
2018-06-14T06:38:23.796Z,97.40
2018-06-14T06:40:51.516Z,97.50
2018-06-14T06:43:19.286Z,96.80
2018-06-14T06:45:47.031Z,95.90
2018-06-14T06:48:14.763Z,95.30
2018-06-14T06:50:42.684Z,95.30
2018-06-14T06:53:10.473Z,95.40
2018-06-14T06:55:38.170Z,95.20
2018-06-14T06:58:05.948Z,94.40
2018-06-14T07:00:33.685Z,93.90
2018-06-14T07:03:01.444Z,94.50
2018-06-14T07:05:29.143Z,92.80
2018-06-14T07:07:56.907Z,92.90
2018-06-14T07:10:24.695Z,92.20
2018-06-14T07:15:20.012Z,89.30
2018-06-14T07:17:47.767Z,86.20
2018-06-14T07:20:15.476Z,84.30
2018-06-14T07:22:43.200Z,88.10
2018-06-14T07:27:38.628Z,86.00
2018-06-14T07:30:06.411Z,85.20
2018-06-14T07:32:34.142Z,85.40
2018-06-14T07:35:01.847Z,82.10
2018-06-14T07:37:29.583Z,82.30
2018-06-14T07:39:57.284Z,81.20
2018-06-14T07:42:25.035Z,78.30
2018-06-14T07:44:52.751Z,76.60
2018-06-14T07:47:20.485Z,73.10
2018-06-14T07:49:48.194Z,71.60
2018-06-14T07:52:15.923Z,71.30
2018-06-14T07:54:43.659Z,73.00
2018-06-14T07:57:11.448Z,74.00
2018-06-14T07:59:39.184Z,71.70
2018-06-14T08:02:07.279Z,71.40
2018-06-14T08:04:35.016Z,72.30
2018-06-14T08:07:02.755Z,67.90
2018-06-14T08:09:30.460Z,67.60
2018-06-14T08:11:58.199Z,69.00
2018-06-14T08:16:53.533Z,63.40
2018-06-14T08:24:16.374Z,57.10
2018-06-14T08:26:44.115Z,55.50
2018-06-14T08:29:11.797Z,54.30
2018-06-14T08:31:39.511Z,53.40
2018-06-14T08:34:07.224Z,54.90
2018-06-14T08:36:34.979Z,53.30
2018-06-14T08:39:03.443Z,52.20
2018-06-14T08:41:31.174Z,51.20
2018-06-14T08:46:26.492Z,51.90
2018-06-14T08:48:55.192Z,48.20
2018-06-14T08:53:50.572Z,49.50
2018-06-14T08:56:18.262Z,46.00
2018-06-14T08:58:46.030Z,43.30
2018-06-14T09:01:13.764Z,42.60
2018-06-14T09:03:41.592Z,41.60
2018-06-14T09:06:10.818Z,39.60
2018-06-14T09:08:38.575Z,36.20
2018-06-14T09:11:06.300Z,36.20
2018-06-14T09:13:34.093Z,36.40
2018-06-14T09:16:01.818Z,33.30
2018-06-14T09:20:57.216Z,28.80
2018-06-14T09:23:25.088Z,28.60
2018-06-14T09:25:52.802Z,30.10
2018-06-14T09:28:20.564Z,30.50
2018-06-14T09:30:48.354Z,30.60
2018-06-14T09:33:16.508Z,33.90
2018-06-14T09:35:44.237Z,34.10
2018-06-14T09:38:12.096Z,35.80
2018-06-14T09:40:40.088Z,36.00
2018-06-14T09:43:07.984Z,37.00
2018-06-14T09:48:03.319Z,36.80
2018-06-14T09:50:31.046Z,36.30
2018-06-14T09:52:58.796Z,32.40
2018-06-14T09:55:26.532Z,32.20
2018-06-14T09:57:54.305Z,34.50
2018-06-14T10:00:22.108Z,35.00
2018-06-14T10:05:17.502Z,32.90
2018-06-14T10:07:45.322Z,34.00
2018-06-14T10:10:13.101Z,34.00
2018-06-14T10:12:40.908Z,34.40
2018-06-14T10:15:08.651Z,35.60
2018-06-14T10:17:36.463Z,38.20
2018-06-14T10:20:04.207Z,39.30
2018-06-14T10:22:31.943Z,38.20
2018-06-14T10:24:59.711Z,37.20
2018-06-14T10:27:27.468Z,37.50
2018-06-14T10:29:55.231Z,36.40
2018-06-14T10:32:22.951Z,36.60
2018-06-14T10:34:50.728Z,40.00
2018-06-14T10:37:18.559Z,41.30
2018-06-14T10:39:46.317Z,36.40
2018-06-14T10:42:14.084Z,35.20
2018-06-14T10:44:41.900Z,34.90
2018-06-14T10:47:09.644Z,37.40
2018-06-14T10:49:37.380Z,38.20
2018-06-14T10:54:32.696Z,40.50
2018-06-14T10:57:00.447Z,40.70
2018-06-14T10:59:28.163Z,41.40
2018-06-14T11:01:55.893Z,38.80
2018-06-14T11:06:51.400Z,31.40
2018-06-14T11:09:19.100Z,28.70
2018-06-14T11:11:46.855Z,27.50
2018-06-14T11:14:14.584Z,27.30
2018-06-14T11:16:42.405Z,28.20
2018-06-14T11:19:10.175Z,28.20
2018-06-14T11:21:37.915Z,26.90
2018-06-14T11:24:05.697Z,27.50
2018-06-14T11:26:33.447Z,26.10
2018-06-14T11:31:28.798Z,27.90
2018-06-14T11:33:56.594Z,29.70
2018-06-14T11:36:24.302Z,31.00
2018-06-14T11:41:19.626Z,33.20
2018-06-14T11:46:15.378Z,34.20
2018-06-14T11:48:43.116Z,31.40
2018-06-14T11:51:10.844Z,31.40
2018-06-14T11:53:38.811Z,30.00
2018-06-14T11:56:06.589Z,29.20
2018-06-14T11:58:34.354Z,29.80
2018-06-14T12:01:02.166Z,31.10
2018-06-14T12:03:29.984Z,31.20
2018-06-14T12:05:57.708Z,32.20
2018-06-14T12:08:25.457Z,30.70
2018-06-14T12:10:53.211Z,31.70
2018-06-14T12:15:48.585Z,31.40
2018-06-14T12:18:16.357Z,31.00
2018-06-14T12:20:44.075Z,30.50
2018-06-14T12:25:39.473Z,32.20
2018-06-14T12:28:07.244Z,33.60
2018-06-14T12:33:02.693Z,30.10
2018-06-14T12:35:30.459Z,29.40
2018-06-14T12:37:58.330Z,27.40
2018-06-14T12:40:26.068Z,28.70
2018-06-14T12:42:53.827Z,29.90
2018-06-14T12:45:21.564Z,30.50
2018-06-14T12:47:49.348Z,31.40
2018-06-14T12:50:17.091Z,32.00
2018-06-14T12:52:44.883Z,32.60
2018-06-14T12:57:40.259Z,29.10
2018-06-14T13:00:07.968Z,28.40
2018-06-14T13:02:35.745Z,27.10
2018-06-14T13:05:03.498Z,27.10
2018-06-14T13:07:31.251Z,28.00
2018-06-14T13:09:58.963Z,28.40
2018-06-14T13:12:26.713Z,28.50
2018-06-14T13:17:22.127Z,30.00
2018-06-14T13:19:49.890Z,31.10
2018-06-14T13:22:17.659Z,32.00
2018-06-14T13:27:13.869Z,30.80
2018-06-14T13:29:42.008Z,31.80
2018-06-14T13:32:10.116Z,32.40
2018-06-14T13:34:38.360Z,31.50
2018-06-14T13:37:06.165Z,32.60
2018-06-14T13:39:33.983Z,34.60
2018-06-14T13:42:02.071Z,34.60
2018-06-14T13:44:29.848Z,34.70
2018-06-14T13:46:57.603Z,33.90
2018-06-14T13:49:25.340Z,33.80
2018-06-14T13:54:20.753Z,34.70
2018-06-14T13:59:16.112Z,36.90
2018-06-14T14:01:43.856Z,35.30
2018-06-14T14:06:39.203Z,34.60
2018-06-14T14:09:09.419Z,35.00
2018-06-14T14:11:37.216Z,34.20
2018-06-14T14:14:05.043Z,35.70
2018-06-14T14:16:32.780Z,35.70
2018-06-14T14:19:00.688Z,35.70
2018-06-14T14:21:28.431Z,35.60
2018-06-14T14:23:56.224Z,34.90
2018-06-14T14:26:23.937Z,35.70
2018-06-14T14:28:51.711Z,35.40
2018-06-14T14:31:19.597Z,35.10
2018-06-14T14:33:47.335Z,37.00
2018-06-14T14:36:15.145Z,37.50
2018-06-14T14:38:42.911Z,38.00
2018-06-14T14:41:10.647Z,38.90
2018-06-14T14:43:38.423Z,37.80
2018-06-14T14:46:06.246Z,38.90
2018-06-14T14:48:34.029Z,40.90
2018-06-14T14:53:29.425Z,40.70
2018-06-14T14:55:57.261Z,40.70
2018-06-14T14:58:25.016Z,40.00
2018-06-14T15:00:52.793Z,41.50
2018-06-14T15:03:20.615Z,42.10
2018-06-14T15:05:48.600Z,42.50
2018-06-14T15:10:43.988Z,48.30
2018-06-14T15:13:11.776Z,49.10
2018-06-14T15:15:39.560Z,46.30
2018-06-14T15:18:07.379Z,49.90
2018-06-14T15:20:35.144Z,53.60
2018-06-14T15:23:02.935Z,59.50
2018-06-14T15:25:30.759Z,61.50
2018-06-14T15:27:58.578Z,63.30
2018-06-14T15:30:26.378Z,65.70
2018-06-14T15:32:54.230Z,69.80
2018-06-14T15:35:22.013Z,75.50
2018-06-14T15:37:50.396Z,91.90
2018-06-14T15:40:18.132Z,88.10
2018-06-14T15:42:45.999Z,90.60
2018-06-14T15:45:13.748Z,98.20
2018-06-14T15:50:09.200Z,99.90
2018-06-14T15:52:37.305Z,99.90
2018-06-14T15:55:16.416Z,99.90
2018-06-14T15:57:44.183Z,99.90
2018-06-14T16:00:11.936Z,99.90
2018-06-14T16:02:39.684Z,99.90
2018-06-14T16:05:07.476Z,99.90
2018-06-14T16:07:35.220Z,99.90
2018-06-14T16:10:03.079Z,99.90
2018-06-14T16:12:30.832Z,99.90
2018-06-14T16:14:58.775Z,99.90
2018-06-14T16:17:26.660Z,99.90
2018-06-14T16:19:54.435Z,99.90
2018-06-14T16:22:22.168Z,99.90
2018-06-14T16:24:49.984Z,99.90
2018-06-14T16:27:17.730Z,99.90
2018-06-14T16:32:13.145Z,99.90
2018-06-14T16:34:40.922Z,99.90
2018-06-14T16:39:36.437Z,99.90
2018-06-14T16:42:04.236Z,99.90
2018-06-14T16:44:31.993Z,99.90
2018-06-14T16:46:59.754Z,99.90
2018-06-14T16:49:27.512Z,99.90
2018-06-14T16:51:55.348Z,99.90
2018-06-14T16:54:23.063Z,99.90
2018-06-14T16:56:50.918Z,99.90
2018-06-14T16:59:18.759Z,99.90
2018-06-14T17:01:46.524Z,99.90
2018-06-14T17:06:42.404Z,99.90
2018-06-14T17:09:10.207Z,99.90
2018-06-14T17:11:38.024Z,99.90
2018-06-14T17:14:05.837Z,99.90
2018-06-14T17:16:33.627Z,99.90
2018-06-14T17:19:01.457Z,99.90
2018-06-14T17:21:29.240Z,99.90
2018-06-14T17:23:57.070Z,99.90
2018-06-14T17:26:24.988Z,99.90
2018-06-14T17:28:52.755Z,99.90
2018-06-14T17:31:20.527Z,99.90
2018-06-14T17:33:48.314Z,99.90
2018-06-14T17:36:16.160Z,99.90
2018-06-14T17:38:43.968Z,99.90
2018-06-14T17:41:11.823Z,99.90
2018-06-14T17:43:39.549Z,99.90
2018-06-14T17:46:07.428Z,99.90
2018-06-14T17:48:35.188Z,99.90
2018-06-14T17:51:02.973Z,99.90
2018-06-14T17:53:30.731Z,99.90
2018-06-14T17:55:58.579Z,99.90
2018-06-14T17:58:26.349Z,99.90
2018-06-14T18:00:54.199Z,99.90
2018-06-14T18:03:21.973Z,99.90
2018-06-14T18:05:49.763Z,99.90
2018-06-14T18:08:17.538Z,99.90
2018-06-14T18:10:45.311Z,99.90
2018-06-14T18:13:13.139Z,99.90
2018-06-14T18:15:40.936Z,99.90
2018-06-14T18:18:08.719Z,99.90
2018-06-14T18:20:36.481Z,99.90
2018-06-14T18:23:04.340Z,99.90
2018-06-14T18:25:32.172Z,99.90
2018-06-14T18:30:27.620Z,99.90
2018-06-14T18:32:55.512Z,99.90
2018-06-14T18:35:24.351Z,99.90
2018-06-14T18:37:52.171Z,99.90
2018-06-14T18:40:20.004Z,99.90
2018-06-14T18:42:47.772Z,99.90
2018-06-14T18:45:15.613Z,99.90
2018-06-14T18:47:43.376Z,99.90
2018-06-14T18:50:11.176Z,99.90
2018-06-14T18:52:38.941Z,99.90
2018-06-14T18:55:06.733Z,99.90
2018-06-14T18:57:34.477Z,99.90
2018-06-14T19:00:02.337Z,99.90
2018-06-14T19:02:30.113Z,99.90
2018-06-14T19:04:57.907Z,99.90
2018-06-14T19:07:25.723Z,99.90
2018-06-14T19:09:53.464Z,99.90
2018-06-14T19:12:21.255Z,99.90
2018-06-14T19:14:48.993Z,99.90
2018-06-14T19:17:16.845Z,99.90
2018-06-14T19:19:44.544Z,99.90
2018-06-14T19:22:12.315Z,99.90
2018-06-14T19:24:40.127Z,99.90
2018-06-14T19:27:07.921Z,99.90
2018-06-14T19:29:35.648Z,99.90
2018-06-14T19:32:03.437Z,99.90
2018-06-14T19:34:31.208Z,99.90
2018-06-14T19:36:58.967Z,99.90
2018-06-14T19:39:26.764Z,99.90
2018-06-14T19:41:54.484Z,99.90
2018-06-14T19:44:22.236Z,99.90
2018-06-14T19:46:49.981Z,99.90
2018-06-14T19:49:22.279Z,99.90
2018-06-14T19:51:50.033Z,99.90
2018-06-14T19:54:17.780Z,99.90
2018-06-14T19:56:45.540Z,99.90
2018-06-14T19:59:13.258Z,99.90
2018-06-14T20:01:41.027Z,99.90
2018-06-14T20:04:08.777Z,99.90
2018-06-14T20:06:36.545Z,99.90
2018-06-14T20:09:06.098Z,99.90
2018-06-14T20:11:33.848Z,99.90
2018-06-14T20:14:01.667Z,99.90
2018-06-14T20:16:29.374Z,99.90
2018-06-14T20:18:57.148Z,99.90
2018-06-14T20:21:24.887Z,99.90
2018-06-14T20:23:52.663Z,99.90
2018-06-14T20:26:20.451Z,99.90
2018-06-14T20:28:48.283Z,99.90
2018-06-14T20:31:16.040Z,99.90
2018-06-14T20:33:43.787Z,99.90
2018-06-14T20:36:11.967Z,99.90
2018-06-14T20:38:39.720Z,99.90
2018-06-14T20:41:07.551Z,99.90
2018-06-14T20:43:35.301Z,99.90
2018-06-14T20:46:03.140Z,99.90
2018-06-14T20:48:30.892Z,99.90
2018-06-14T20:53:26.339Z,99.90
2018-06-14T20:58:21.679Z,99.90
2018-06-14T21:00:49.523Z,99.90
2018-06-14T21:03:17.255Z,99.90
2018-06-14T21:05:45.063Z,99.90
2018-06-14T21:08:12.847Z,99.90
2018-06-14T21:10:40.590Z,99.90
2018-06-14T21:13:08.324Z,99.90
2018-06-14T21:15:36.512Z,99.90
2018-06-14T21:18:04.295Z,99.90
2018-06-14T21:20:32.111Z,99.90
2018-06-14T21:22:59.852Z,99.90
2018-06-14T21:25:27.589Z,99.90
2018-06-14T21:27:55.323Z,99.90
2018-06-14T21:30:23.052Z,99.90
2018-06-14T21:32:50.882Z,99.90
2018-06-14T21:35:18.615Z,99.90
2018-06-14T21:37:46.371Z,99.90
2018-06-14T21:40:14.197Z,99.90
2018-06-14T21:42:42.026Z,99.90
2018-06-14T21:45:09.940Z,99.90
2018-06-14T21:47:38.331Z,99.90
2018-06-14T21:50:06.158Z,99.90
2018-06-14T21:55:01.537Z,99.90
2018-06-14T21:57:29.259Z,99.90
2018-06-14T21:59:57.050Z,99.90
2018-06-14T22:02:24.870Z,99.90
2018-06-14T22:04:53.602Z,99.90
2018-06-14T22:07:21.346Z,99.90
2018-06-14T22:09:49.140Z,99.90
2018-06-14T22:12:16.928Z,99.90
2018-06-14T22:14:45.034Z,99.90
2018-06-14T22:17:12.848Z,99.90
2018-06-14T22:19:40.943Z,99.90
2018-06-14T22:22:08.696Z,99.90
2018-06-14T22:24:36.491Z,99.90
2018-06-14T22:27:04.232Z,99.90
2018-06-14T22:29:31.968Z,99.90
2018-06-14T22:31:59.731Z,99.90
2018-06-14T22:34:38.999Z,99.90
2018-06-14T22:37:06.708Z,99.90
2018-06-14T22:39:34.449Z,99.90
2018-06-14T22:42:02.224Z,99.90
2018-06-14T22:44:31.031Z,99.90
2018-06-14T22:46:59.101Z,99.90
2018-06-14T22:49:27.049Z,99.90
2018-06-14T22:52:10.600Z,99.90
2018-06-14T22:54:38.367Z,99.90
2018-06-14T22:57:06.128Z,99.90
2018-06-14T22:59:33.888Z,99.90
2018-06-14T23:02:01.633Z,99.90
2018-06-14T23:04:29.459Z,99.90
2018-06-14T23:06:58.531Z,99.90
2018-06-14T23:10:36.337Z,99.90
2018-06-14T23:13:04.803Z,99.90
2018-06-14T23:18:00.861Z,99.90
2018-06-14T23:20:29.672Z,99.90
2018-06-14T23:22:58.235Z,99.90
2018-06-14T23:25:26.896Z,99.90
2018-06-14T23:27:54.668Z,99.90
2018-06-14T23:30:22.508Z,99.90
2018-06-14T23:32:50.815Z,99.90
2018-06-14T23:35:18.678Z,99.90
2018-06-14T23:40:14.058Z,99.90
2018-06-14T23:42:42.680Z,99.90
2018-06-14T23:45:10.419Z,99.90
2018-06-14T23:47:38.237Z,99.90
2018-06-14T23:50:06.191Z,99.90
2018-06-14T23:52:34.178Z,99.90
2018-06-14T23:55:01.905Z,99.90
2018-06-14T23:57:29.689Z,99.90
2018-06-14T23:59:57.459Z,99.90
